Terminal Aerodrome Forecast
Issued by NWS

Home | Current Version | Previous Version | Text Only | Print | Product List | Glossary On
Versions: 1 2 3 4 5 6 7 8 9 10 11 12 13 14 15
000
FTUS41 KBGM 232200 AAA
TAFITH
TAF AMD
KITH 232200Z 2322/2418 13007KT P6SM -SHRA BKN050
      TEMPO 2322/2402 3SM TSRA BR OVC022CB
     FM240400 14008KT 5SM -SHRA BR OVC020
     FM240700 17008KT 4SM -SHRA BR OVC022
     FM241500 22006KT P6SM BKN029=

USA.gov is the U.S. government's official web portal to all federal, state and local government web resources and services.